Grass Range, Montana
Current Conditions -  °F | °C
As of 9:35 PM on Saturday 25 Oct 2014 (Local Time) from KMVH Reporting Station
Clear Clear  
Wind Chill: 59°   Ceiling: Unl
Heat Index: 59°   Visibility: 10mi
Dew Point: 32°   Wind: 13mph
Humidity: 36%   Direction: 230°SW
Pressure: 29.7"   Gusts: NA
Location:  47.03°N, 108.8°W
Report Text: KMVH 260335Z AUTO 23011KT 10SM CLR 15/M00 A2970 RMK A01
Loading
Personal Weather Stations






























Interactive Weather Map
Tropical Storm Tracking
New forecast layout! Learn more

10-Day Weather Forecast

Advertisements
Track Severe Weather on mobile